sensor_id;sensor_type;location;lat;lon;timestamp;P1;durP1;ratioP1;P2;durP2;ratioP2
11187;SDS011;5650;52.700;7.306;2023-02-02T00:01:20;34.20;;;5.45;;
11187;SDS011;5650;52.700;7.306;2023-02-02T00:03:48;29.63;;;4.65;;
11187;SDS011;5650;52.700;7.306;2023-02-02T00:06:26;28.38;;;5.22;;
11187;SDS011;5650;52.700;7.306;2023-02-02T00:08:56;30.77;;;4.82;;
11187;SDS011;5650;52.700;7.306;2023-02-02T00:11:24;35.72;;;5.85;;
11187;SDS011;5650;52.700;7.306;2023-02-02T00:13:55;32.13;;;5.07;;
11187;SDS011;5650;52.700;7.306;2023-02-02T00:16:35;28.77;;;5.43;;
11187;SDS011;5650;52.700;7.306;2023-02-02T00:19:08;32.75;;;6.20;;
11187;SDS011;5650;52.700;7.306;2023-02-02T00:21:43;33.92;;;5.20;;
11187;SDS011;5650;52.700;7.306;2023-02-02T00:24:12;34.10;;;6.93;;
11187;SDS011;5650;52.700;7.306;2023-02-02T00:26:42;40.70;;;6.57;;
11187;SDS011;5650;52.700;7.306;2023-02-02T00:29:20;31.13;;;5.05;;
11187;SDS011;5650;52.700;7.306;2023-02-02T00:31:49;31.98;;;5.80;;
11187;SDS011;5650;52.700;7.306;2023-02-02T00:34:16;40.95;;;6.35;;
11187;SDS011;5650;52.700;7.306;2023-02-02T00:36:44;41.15;;;6.68;;
11187;SDS011;5650;52.700;7.306;2023-02-02T00:39:14;37.83;;;5.32;;
11187;SDS011;5650;52.700;7.306;2023-02-02T00:41:42;36.60;;;4.82;;
11187;SDS011;5650;52.700;7.306;2023-02-02T00:44:12;34.15;;;5.50;;
11187;SDS011;5650;52.700;7.306;2023-02-02T00:47:03;30.38;;;4.95;;
11187;SDS011;5650;52.700;7.306;2023-02-02T00:49:33;30.95;;;5.53;;
11187;SDS011;5650;52.700;7.306;2023-02-02T00:52:01;32.60;;;5.00;;
11187;SDS011;5650;52.700;7.306;2023-02-02T00:54:29;35.97;;;5.35;;
11187;SDS011;5650;52.700;7.306;2023-02-02T00:56:56;29.05;;;4.85;;
11187;SDS011;5650;52.700;7.306;2023-02-02T00:59:23;27.52;;;4.60;;
11187;SDS011;5650;52.700;7.306;2023-02-02T01:01:50;30.52;;;5.38;;
11187;SDS011;5650;52.700;7.306;2023-02-02T01:04:30;38.25;;;6.25;;
11187;SDS011;5650;52.700;7.306;2023-02-02T01:06:57;38.00;;;5.78;;
11187;SDS011;5650;52.700;7.306;2023-02-02T01:09:24;37.53;;;6.18;;
11187;SDS011;5650;52.700;7.306;2023-02-02T01:11:55;35.95;;;5.60;;
11187;SDS011;5650;52.700;7.306;2023-02-02T01:14:23;34.03;;;5.20;;
11187;SDS011;5650;52.700;7.306;2023-02-02T01:17:02;30.70;;;4.85;;
11187;SDS011;5650;52.700;7.306;2023-02-02T01:19:31;34.35;;;5.53;;
11187;SDS011;5650;52.700;7.306;2023-02-02T01:21:59;40.55;;;5.30;;
11187;SDS011;5650;52.700;7.306;2023-02-02T01:24:26;41.58;;;5.88;;
11187;SDS011;5650;52.700;7.306;2023-02-02T01:26:53;27.00;;;5.05;;
11187;SDS011;5650;52.700;7.306;2023-02-02T01:29:21;34.83;;;5.30;;
11187;SDS011;5650;52.700;7.306;2023-02-02T01:31:48;35.35;;;4.80;;
11187;SDS011;5650;52.700;7.306;2023-02-02T01:34:15;27.33;;;5.35;;
11187;SDS011;5650;52.700;7.306;2023-02-02T01:36:43;25.60;;;4.47;;
11187;SDS011;5650;52.700;7.306;2023-02-02T01:39:17;32.72;;;6.22;;
11187;SDS011;5650;52.700;7.306;2023-02-02T01:41:47;32.90;;;5.35;;
11187;SDS011;5650;52.700;7.306;2023-02-02T01:47:28;25.80;;;4.18;;
11187;SDS011;5650;52.700;7.306;2023-02-02T01:50:01;36.33;;;5.03;;
11187;SDS011;5650;52.700;7.306;2023-02-02T01:52:29;24.38;;;4.55;;
11187;SDS011;5650;52.700;7.306;2023-02-02T01:55:08;35.63;;;5.22;;
11187;SDS011;5650;52.700;7.306;2023-02-02T01:57:38;30.50;;;5.22;;
11187;SDS011;5650;52.700;7.306;2023-02-02T02:00:11;30.00;;;5.38;;
11187;SDS011;5650;52.700;7.306;2023-02-02T02:02:42;34.60;;;6.20;;
11187;SDS011;5650;52.700;7.306;2023-02-02T02:05:11;28.40;;;5.07;;
11187;SDS011;5650;52.700;7.306;2023-02-02T02:07:42;28.33;;;4.63;;
11187;SDS011;5650;52.700;7.306;2023-02-02T02:10:12;30.88;;;5.45;;
11187;SDS011;5650;52.700;7.306;2023-02-02T02:12:39;26.05;;;4.45;;
11187;SDS011;5650;52.700;7.306;2023-02-02T02:15:07;32.70;;;4.68;;
11187;SDS011;5650;52.700;7.306;2023-02-02T02:17:59;23.70;;;3.92;;
11187;SDS011;5650;52.700;7.306;2023-02-02T02:20:45;35.35;;;5.57;;
11187;SDS011;5650;52.700;7.306;2023-02-02T02:24:01;35.88;;;4.72;;
11187;SDS011;5650;52.700;7.306;2023-02-02T02:27:15;30.17;;;4.93;;
11187;SDS011;5650;52.700;7.306;2023-02-02T02:33:21;23.60;;;4.50;;
11187;SDS011;5650;52.700;7.306;2023-02-02T02:35:54;32.35;;;4.80;;
11187;SDS011;5650;52.700;7.306;2023-02-02T02:38:36;20.48;;;3.83;;
11187;SDS011;5650;52.700;7.306;2023-02-02T02:41:15;31.08;;;5.15;;
11187;SDS011;5650;52.700;7.306;2023-02-02T02:43:47;31.88;;;5.05;;
11187;SDS011;5650;52.700;7.306;2023-02-02T02:46:21;33.33;;;4.22;;
11187;SDS011;5650;52.700;7.306;2023-02-02T02:48:53;20.48;;;3.88;;
11187;SDS011;5650;52.700;7.306;2023-02-02T02:54:16;29.25;;;4.93;;
11187;SDS011;5650;52.700;7.306;2023-02-02T02:57:02;34.88;;;4.53;;
11187;SDS011;5650;52.700;7.306;2023-02-02T02:59:44;24.38;;;4.60;;
11187;SDS011;5650;52.700;7.306;2023-02-02T03:02:22;23.73;;;4.07;;
11187;SDS011;5650;52.700;7.306;2023-02-02T03:05:02;27.50;;;5.35;;
11187;SDS011;5650;52.700;7.306;2023-02-02T03:07:40;33.03;;;4.80;;
11187;SDS011;5650;52.700;7.306;2023-02-02T03:10:12;25.83;;;4.38;;
11187;SDS011;5650;52.700;7.306;2023-02-02T03:12:43;29.42;;;4.45;;
11187;SDS011;5650;52.700;7.306;2023-02-02T03:15:12;25.55;;;4.13;;
11187;SDS011;5650;52.700;7.306;2023-02-02T03:17:40;28.60;;;4.65;;
11187;SDS011;5650;52.700;7.306;2023-02-02T03:20:10;30.67;;;4.32;;
11187;SDS011;5650;52.700;7.306;2023-02-02T03:22:38;33.65;;;5.18;;
11187;SDS011;5650;52.700;7.306;2023-02-02T03:25:08;24.67;;;4.55;;
11187;SDS011;5650;52.700;7.306;2023-02-02T03:27:36;31.85;;;4.57;;
11187;SDS011;5650;52.700;7.306;2023-02-02T03:30:05;28.23;;;4.75;;
11187;SDS011;5650;52.700;7.306;2023-02-02T03:32:34;29.70;;;5.13;;
11187;SDS011;5650;52.700;7.306;2023-02-02T03:35:15;18.80;;;4.05;;
11187;SDS011;5650;52.700;7.306;2023-02-02T03:37:44;32.38;;;4.80;;
11187;SDS011;5650;52.700;7.306;2023-02-02T03:40:15;33.33;;;5.43;;
11187;SDS011;5650;52.700;7.306;2023-02-02T03:42:43;29.23;;;4.25;;
11187;SDS011;5650;52.700;7.306;2023-02-02T03:45:13;25.58;;;4.35;;
11187;SDS011;5650;52.700;7.306;2023-02-02T03:47:40;32.17;;;4.32;;
11187;SDS011;5650;52.700;7.306;2023-02-02T03:50:08;25.25;;;4.95;;
11187;SDS011;5650;52.700;7.306;2023-02-02T03:52:40;30.00;;;4.72;;
11187;SDS011;5650;52.700;7.306;2023-02-02T03:55:12;26.65;;;3.95;;
11187;SDS011;5650;52.700;7.306;2023-02-02T03:57:40;36.90;;;4.50;;
11187;SDS011;5650;52.700;7.306;2023-02-02T04:00:10;20.67;;;3.53;;
11187;SDS011;5650;52.700;7.306;2023-02-02T04:02:41;29.67;;;4.85;;
11187;SDS011;5650;52.700;7.306;2023-02-02T04:05:11;24.73;;;3.72;;
11187;SDS011;5650;52.700;7.306;2023-02-02T04:07:38;22.67;;;3.03;;
11187;SDS011;5650;52.700;7.306;2023-02-02T04:10:09;18.23;;;3.70;;
11187;SDS011;5650;52.700;7.306;2023-02-02T04:12:37;16.85;;;3.25;;
11187;SDS011;5650;52.700;7.306;2023-02-02T04:15:06;19.77;;;2.90;;
11187;SDS011;5650;52.700;7.306;2023-02-02T04:17:40;16.08;;;2.72;;
11187;SDS011;5650;52.700;7.306;2023-02-02T04:20:07;13.02;;;2.72;;
11187;SDS011;5650;52.700;7.306;2023-02-02T04:22:37;10.15;;;2.60;;
11187;SDS011;5650;52.700;7.306;2023-02-02T04:25:13;16.55;;;2.85;;
11187;SDS011;5650;52.700;7.306;2023-02-02T04:27:43;13.00;;;2.30;;
11187;SDS011;5650;52.700;7.306;2023-02-02T04:30:16;17.95;;;2.33;;
11187;SDS011;5650;52.700;7.306;2023-02-02T04:32:44;13.35;;;2.38;;
11187;SDS011;5650;52.700;7.306;2023-02-02T04:35:17;11.50;;;2.05;;
11187;SDS011;5650;52.700;7.306;2023-02-02T04:37:47;8.88;;;1.70;;
11187;SDS011;5650;52.700;7.306;2023-02-02T04:40:19;9.30;;;1.92;;
11187;SDS011;5650;52.700;7.306;2023-02-02T04:42:46;9.40;;;1.92;;
11187;SDS011;5650;52.700;7.306;2023-02-02T04:45:13;9.48;;;1.90;;
11187;SDS011;5650;52.700;7.306;2023-02-02T04:47:43;9.23;;;2.40;;
11187;SDS011;5650;52.700;7.306;2023-02-02T04:50:13;6.78;;;1.73;;
11187;SDS011;5650;52.700;7.306;2023-02-02T04:52:43;11.70;;;2.33;;
11187;SDS011;5650;52.700;7.306;2023-02-02T04:55:10;11.00;;;2.08;;
11187;SDS011;5650;52.700;7.306;2023-02-02T04:57:42;7.53;;;1.85;;
11187;SDS011;5650;52.700;7.306;2023-02-02T05:00:10;4.68;;;1.88;;
11187;SDS011;5650;52.700;7.306;2023-02-02T05:02:38;9.90;;;1.73;;
11187;SDS011;5650;52.700;7.306;2023-02-02T05:05:08;9.07;;;1.45;;
11187;SDS011;5650;52.700;7.306;2023-02-02T05:07:40;8.93;;;1.67;;
11187;SDS011;5650;52.700;7.306;2023-02-02T05:10:08;8.02;;;1.52;;
11187;SDS011;5650;52.700;7.306;2023-02-02T05:12:36;9.52;;;2.08;;
11187;SDS011;5650;52.700;7.306;2023-02-02T05:15:07;7.55;;;1.50;;
11187;SDS011;5650;52.700;7.306;2023-02-02T05:17:35;13.32;;;1.67;;
11187;SDS011;5650;52.700;7.306;2023-02-02T05:20:03;7.00;;;1.45;;
11187;SDS011;5650;52.700;7.306;2023-02-02T05:22:30;7.28;;;1.90;;
11187;SDS011;5650;52.700;7.306;2023-02-02T05:24:59;8.68;;;1.30;;
11187;SDS011;5650;52.700;7.306;2023-02-02T05:27:26;5.85;;;1.52;;
11187;SDS011;5650;52.700;7.306;2023-02-02T05:29:53;5.50;;;1.33;;
11187;SDS011;5650;52.700;7.306;2023-02-02T05:32:22;3.85;;;1.20;;
11187;SDS011;5650;52.700;7.306;2023-02-02T05:34:49;4.38;;;1.30;;
11187;SDS011;5650;52.700;7.306;2023-02-02T05:37:16;5.00;;;1.45;;
11187;SDS011;5650;52.700;7.306;2023-02-02T05:39:43;3.38;;;1.02;;
11187;SDS011;5650;52.700;7.306;2023-02-02T05:42:10;8.25;;;1.42;;
11187;SDS011;5650;52.700;7.306;2023-02-02T05:44:38;7.00;;;1.27;;
11187;SDS011;5650;52.700;7.306;2023-02-02T05:47:05;3.67;;;1.40;;
11187;SDS011;5650;52.700;7.306;2023-02-02T05:49:34;5.82;;;1.25;;
11187;SDS011;5650;52.700;7.306;2023-02-02T05:52:01;3.35;;;1.02;;
11187;SDS011;5650;52.700;7.306;2023-02-02T05:54:29;6.07;;;1.67;;
11187;SDS011;5650;52.700;7.306;2023-02-02T05:56:56;3.65;;;1.10;;
11187;SDS011;5650;52.700;7.306;2023-02-02T05:59:25;6.70;;;1.33;;
11187;SDS011;5650;52.700;7.306;2023-02-02T06:01:53;6.18;;;1.75;;
11187;SDS011;5650;52.700;7.306;2023-02-02T06:04:20;6.65;;;1.15;;
11187;SDS011;5650;52.700;7.306;2023-02-02T06:06:49;3.55;;;1.08;;
11187;SDS011;5650;52.700;7.306;2023-02-02T06:09:16;7.18;;;1.35;;
11187;SDS011;5650;52.700;7.306;2023-02-02T06:11:43;5.47;;;1.30;;
11187;SDS011;5650;52.700;7.306;2023-02-02T06:14:11;4.55;;;1.30;;
11187;SDS011;5650;52.700;7.306;2023-02-02T06:16:38;2.30;;;1.30;;
11187;SDS011;5650;52.700;7.306;2023-02-02T06:19:05;5.00;;;1.15;;
11187;SDS011;5650;52.700;7.306;2023-02-02T06:21:32;5.28;;;1.60;;
11187;SDS011;5650;52.700;7.306;2023-02-02T06:24:01;7.13;;;1.50;;
11187;SDS011;5650;52.700;7.306;2023-02-02T06:26:28;5.97;;;1.60;;
11187;SDS011;5650;52.700;7.306;2023-02-02T06:28:56;5.65;;;1.48;;
11187;SDS011;5650;52.700;7.306;2023-02-02T06:31:23;7.88;;;2.47;;
11187;SDS011;5650;52.700;7.306;2023-02-02T06:33:53;12.18;;;2.88;;
11187;SDS011;5650;52.700;7.306;2023-02-02T06:36:22;7.53;;;1.80;;
11187;SDS011;5650;52.700;7.306;2023-02-02T06:38:51;7.13;;;1.88;;
11187;SDS011;5650;52.700;7.306;2023-02-02T06:41:20;7.78;;;1.88;;
11187;SDS011;5650;52.700;7.306;2023-02-02T06:43:48;37.90;;;24.13;;
11187;SDS011;5650;52.700;7.306;2023-02-02T06:46:16;6.30;;;2.03;;
11187;SDS011;5650;52.700;7.306;2023-02-02T06:48:43;5.50;;;1.73;;
11187;SDS011;5650;52.700;7.306;2023-02-02T06:51:11;8.95;;;2.15;;
11187;SDS011;5650;52.700;7.306;2023-02-02T06:53:38;9.23;;;2.05;;
11187;SDS011;5650;52.700;7.306;2023-02-02T06:56:06;12.50;;;2.92;;
11187;SDS011;5650;52.700;7.306;2023-02-02T06:58:38;8.65;;;2.22;;
11187;SDS011;5650;52.700;7.306;2023-02-02T07:01:06;7.63;;;1.95;;
11187;SDS011;5650;52.700;7.306;2023-02-02T07:03:34;9.05;;;1.85;;
11187;SDS011;5650;52.700;7.306;2023-02-02T07:06:09;9.50;;;2.17;;
11187;SDS011;5650;52.700;7.306;2023-02-02T07:08:37;12.32;;;2.03;;
11187;SDS011;5650;52.700;7.306;2023-02-02T07:11:04;8.77;;;2.00;;
11187;SDS011;5650;52.700;7.306;2023-02-02T07:13:31;6.93;;;1.60;;
11187;SDS011;5650;52.700;7.306;2023-02-02T07:16:00;11.05;;;2.15;;
11187;SDS011;5650;52.700;7.306;2023-02-02T07:18:28;8.68;;;2.10;;
11187;SDS011;5650;52.700;7.306;2023-02-02T07:20:57;10.65;;;1.77;;
11187;SDS011;5650;52.700;7.306;2023-02-02T07:23:25;9.10;;;1.92;;
11187;SDS011;5650;52.700;7.306;2023-02-02T07:25:58;8.75;;;1.90;;
11187;SDS011;5650;52.700;7.306;2023-02-02T07:28:27;7.80;;;2.10;;
11187;SDS011;5650;52.700;7.306;2023-02-02T07:30:54;13.68;;;2.33;;
11187;SDS011;5650;52.700;7.306;2023-02-02T07:33:23;8.60;;;2.20;;
11187;SDS011;5650;52.700;7.306;2023-02-02T07:35:50;9.15;;;2.50;;
11187;SDS011;5650;52.700;7.306;2023-02-02T07:38:17;5.40;;;1.60;;
11187;SDS011;5650;52.700;7.306;2023-02-02T07:40:45;5.30;;;1.50;;
11187;SDS011;5650;52.700;7.306;2023-02-02T07:43:12;6.72;;;1.50;;
11187;SDS011;5650;52.700;7.306;2023-02-02T07:45:39;9.60;;;1.70;;
11187;SDS011;5650;52.700;7.306;2023-02-02T07:48:07;8.27;;;2.08;;
11187;SDS011;5650;52.700;7.306;2023-02-02T07:50:36;8.35;;;2.15;;
11187;SDS011;5650;52.700;7.306;2023-02-02T07:53:03;8.25;;;2.63;;
11187;SDS011;5650;52.700;7.306;2023-02-02T07:55:30;5.75;;;1.83;;
11187;SDS011;5650;52.700;7.306;2023-02-02T07:57:57;7.95;;;2.05;;
11187;SDS011;5650;52.700;7.306;2023-02-02T08:00:26;10.90;;;2.33;;
11187;SDS011;5650;52.700;7.306;2023-02-02T08:02:53;10.23;;;2.20;;
11187;SDS011;5650;52.700;7.306;2023-02-02T08:05:20;9.52;;;2.03;;
11187;SDS011;5650;52.700;7.306;2023-02-02T08:07:49;8.07;;;2.20;;
11187;SDS011;5650;52.700;7.306;2023-02-02T08:10:16;10.25;;;1.90;;
11187;SDS011;5650;52.700;7.306;2023-02-02T08:12:43;7.60;;;1.92;;
11187;SDS011;5650;52.700;7.306;2023-02-02T08:15:10;9.95;;;2.10;;
11187;SDS011;5650;52.700;7.306;2023-02-02T08:17:38;11.30;;;1.95;;
11187;SDS011;5650;52.700;7.306;2023-02-02T08:20:05;7.20;;;2.20;;
11187;SDS011;5650;52.700;7.306;2023-02-02T08:22:42;20.05;;;3.03;;
11187;SDS011;5650;52.700;7.306;2023-02-02T08:25:10;9.27;;;2.25;;
11187;SDS011;5650;52.700;7.306;2023-02-02T08:27:37;8.70;;;2.20;;
11187;SDS011;5650;52.700;7.306;2023-02-02T08:30:05;10.00;;;2.40;;
11187;SDS011;5650;52.700;7.306;2023-02-02T08:32:36;12.50;;;2.45;;
11187;SDS011;5650;52.700;7.306;2023-02-02T08:35:04;7.80;;;2.05;;
11187;SDS011;5650;52.700;7.306;2023-02-02T08:37:32;11.65;;;2.78;;
11187;SDS011;5650;52.700;7.306;2023-02-02T08:40:06;7.55;;;2.28;;
11187;SDS011;5650;52.700;7.306;2023-02-02T08:42:44;8.27;;;2.00;;
11187;SDS011;5650;52.700;7.306;2023-02-02T08:45:24;8.88;;;2.20;;
11187;SDS011;5650;52.700;7.306;2023-02-02T08:48:06;7.40;;;2.22;;
11187;SDS011;5650;52.700;7.306;2023-02-02T08:50:33;8.27;;;1.90;;
11187;SDS011;5650;52.700;7.306;2023-02-02T08:53:03;11.45;;;2.20;;
11187;SDS011;5650;52.700;7.306;2023-02-02T08:55:32;11.45;;;2.60;;
11187;SDS011;5650;52.700;7.306;2023-02-02T08:58:04;10.05;;;2.47;;
11187;SDS011;5650;52.700;7.306;2023-02-02T09:00:31;15.18;;;3.00;;
11187;SDS011;5650;52.700;7.306;2023-02-02T09:02:58;9.35;;;2.58;;
11187;SDS011;5650;52.700;7.306;2023-02-02T09:05:25;14.63;;;2.97;;
11187;SDS011;5650;52.700;7.306;2023-02-02T09:07:52;10.48;;;2.58;;
11187;SDS011;5650;52.700;7.306;2023-02-02T09:10:20;8.23;;;2.20;;
11187;SDS011;5650;52.700;7.306;2023-02-02T09:12:59;9.25;;;2.28;;
11187;SDS011;5650;52.700;7.306;2023-02-02T09:15:28;8.35;;;2.75;;
11187;SDS011;5650;52.700;7.306;2023-02-02T09:17:55;8.98;;;2.85;;
11187;SDS011;5650;52.700;7.306;2023-02-02T09:20:26;9.75;;;3.28;;
11187;SDS011;5650;52.700;7.306;2023-02-02T09:22:59;7.85;;;2.20;;
11187;SDS011;5650;52.700;7.306;2023-02-02T09:25:26;11.10;;;2.45;;
11187;SDS011;5650;52.700;7.306;2023-02-02T09:27:53;11.07;;;2.70;;
11187;SDS011;5650;52.700;7.306;2023-02-02T09:30:23;13.20;;;3.47;;
11187;SDS011;5650;52.700;7.306;2023-02-02T09:32:55;10.50;;;3.03;;
11187;SDS011;5650;52.700;7.306;2023-02-02T09:35:28;8.30;;;2.83;;
11187;SDS011;5650;52.700;7.306;2023-02-02T09:37:55;9.80;;;2.90;;
11187;SDS011;5650;52.700;7.306;2023-02-02T09:40:22;10.20;;;2.85;;
11187;SDS011;5650;52.700;7.306;2023-02-02T09:42:57;9.48;;;2.65;;
11187;SDS011;5650;52.700;7.306;2023-02-02T09:45:33;9.27;;;2.38;;
11187;SDS011;5650;52.700;7.306;2023-02-02T09:48:16;12.30;;;2.75;;
11187;SDS011;5650;52.700;7.306;2023-02-02T09:51:00;10.10;;;2.78;;
11187;SDS011;5650;52.700;7.306;2023-02-02T09:53:39;8.60;;;2.83;;
11187;SDS011;5650;52.700;7.306;2023-02-02T09:56:12;9.40;;;2.50;;
11187;SDS011;5650;52.700;7.306;2023-02-02T09:58:48;11.82;;;2.92;;
11187;SDS011;5650;52.700;7.306;2023-02-02T10:01:23;8.50;;;2.10;;
11187;SDS011;5650;52.700;7.306;2023-02-02T10:03:56;11.45;;;2.65;;
11187;SDS011;5650;52.700;7.306;2023-02-02T10:06:32;11.43;;;2.97;;
11187;SDS011;5650;52.700;7.306;2023-02-02T10:09:05;10.10;;;2.45;;
11187;SDS011;5650;52.700;7.306;2023-02-02T10:11:43;6.95;;;2.40;;
11187;SDS011;5650;52.700;7.306;2023-02-02T10:14:18;9.10;;;2.40;;
11187;SDS011;5650;52.700;7.306;2023-02-02T10:16:51;11.85;;;3.13;;
11187;SDS011;5650;52.700;7.306;2023-02-02T10:19:20;14.02;;;2.65;;
11187;SDS011;5650;52.700;7.306;2023-02-02T10:22:00;8.23;;;2.20;;
11187;SDS011;5650;52.700;7.306;2023-02-02T10:24:30;8.23;;;2.30;;
11187;SDS011;5650;52.700;7.306;2023-02-02T10:27:15;10.30;;;2.50;;
11187;SDS011;5650;52.700;7.306;2023-02-02T10:29:52;8.70;;;2.30;;
11187;SDS011;5650;52.700;7.306;2023-02-02T10:32:31;7.05;;;1.83;;
11187;SDS011;5650;52.700;7.306;2023-02-02T10:35:26;9.80;;;2.28;;
11187;SDS011;5650;52.700;7.306;2023-02-02T10:38:03;9.57;;;2.47;;
11187;SDS011;5650;52.700;7.306;2023-02-02T10:40:41;10.00;;;2.53;;
11187;SDS011;5650;52.700;7.306;2023-02-02T10:43:20;7.95;;;2.70;;
11187;SDS011;5650;52.700;7.306;2023-02-02T10:46:13;12.75;;;2.72;;
11187;SDS011;5650;52.700;7.306;2023-02-02T10:48:47;9.93;;;2.55;;
11187;SDS011;5650;52.700;7.306;2023-02-02T10:51:20;11.43;;;2.67;;
11187;SDS011;5650;52.700;7.306;2023-02-02T10:54:00;11.73;;;3.08;;
11187;SDS011;5650;52.700;7.306;2023-02-02T10:56:39;9.90;;;2.78;;
11187;SDS011;5650;52.700;7.306;2023-02-02T10:59:13;6.90;;;3.03;;
11187;SDS011;5650;52.700;7.306;2023-02-02T11:01:51;9.55;;;2.55;;
11187;SDS011;5650;52.700;7.306;2023-02-02T11:04:20;8.02;;;2.55;;
11187;SDS011;5650;52.700;7.306;2023-02-02T11:07:14;9.73;;;2.88;;
11187;SDS011;5650;52.700;7.306;2023-02-02T11:09:44;6.90;;;2.22;;
11187;SDS011;5650;52.700;7.306;2023-02-02T11:12:22;8.00;;;2.30;;
11187;SDS011;5650;52.700;7.306;2023-02-02T11:14:54;5.55;;;2.40;;
11187;SDS011;5650;52.700;7.306;2023-02-02T11:17:26;6.50;;;2.20;;
11187;SDS011;5650;52.700;7.306;2023-02-02T11:19:55;8.80;;;2.40;;
11187;SDS011;5650;52.700;7.306;2023-02-02T11:22:35;9.32;;;2.50;;
11187;SDS011;5650;52.700;7.306;2023-02-02T11:25:25;13.13;;;2.60;;
11187;SDS011;5650;52.700;7.306;2023-02-02T11:28:12;8.73;;;2.20;;
11187;SDS011;5650;52.700;7.306;2023-02-02T11:30:45;6.88;;;2.33;;
11187;SDS011;5650;52.700;7.306;2023-02-02T11:33:19;5.45;;;2.20;;
11187;SDS011;5650;52.700;7.306;2023-02-02T11:35:54;5.82;;;2.40;;
11187;SDS011;5650;52.700;7.306;2023-02-02T11:38:22;6.05;;;2.25;;
11187;SDS011;5650;52.700;7.306;2023-02-02T11:40:59;8.75;;;2.50;;
11187;SDS011;5650;52.700;7.306;2023-02-02T11:43:32;7.32;;;2.20;;
11187;SDS011;5650;52.700;7.306;2023-02-02T11:46:05;5.85;;;2.28;;
11187;SDS011;5650;52.700;7.306;2023-02-02T11:48:46;7.53;;;3.30;;
11187;SDS011;5650;52.700;7.306;2023-02-02T11:51:21;8.45;;;3.85;;
11187;SDS011;5650;52.700;7.306;2023-02-02T11:54:00;6.45;;;2.80;;
11187;SDS011;5650;52.700;7.306;2023-02-02T11:56:50;7.57;;;2.40;;
11187;SDS011;5650;52.700;7.306;2023-02-02T11:59:29;9.77;;;2.22;;
11187;SDS011;5650;52.700;7.306;2023-02-02T12:04:53;5.22;;;1.58;;
11187;SDS011;5650;52.700;7.306;2023-02-02T12:07:24;8.18;;;2.45;;
11187;SDS011;5650;52.700;7.306;2023-02-02T12:09:56;5.85;;;2.15;;
11187;SDS011;5650;52.700;7.306;2023-02-02T12:12:35;8.15;;;2.53;;
11187;SDS011;5650;52.700;7.306;2023-02-02T12:15:11;10.48;;;2.33;;
11187;SDS011;5650;52.700;7.306;2023-02-02T12:17:48;8.63;;;2.70;;
11187;SDS011;5650;52.700;7.306;2023-02-02T12:20:30;6.22;;;2.22;;
11187;SDS011;5650;52.700;7.306;2023-02-02T12:23:17;6.30;;;2.22;;
11187;SDS011;5650;52.700;7.306;2023-02-02T12:26:22;5.05;;;2.38;;
11187;SDS011;5650;52.700;7.306;2023-02-02T12:29:06;8.50;;;2.35;;
11187;SDS011;5650;52.700;7.306;2023-02-02T12:31:48;15.18;;;2.45;;
11187;SDS011;5650;52.700;7.306;2023-02-02T12:34:38;11.27;;;2.15;;
11187;SDS011;5650;52.700;7.306;2023-02-02T12:37:23;10.88;;;2.60;;
11187;SDS011;5650;52.700;7.306;2023-02-02T12:40:16;7.75;;;2.03;;
11187;SDS011;5650;52.700;7.306;2023-02-02T12:43:09;5.65;;;2.15;;
11187;SDS011;5650;52.700;7.306;2023-02-02T12:45:50;9.25;;;2.35;;
11187;SDS011;5650;52.700;7.306;2023-02-02T12:48:42;5.88;;;2.10;;
11187;SDS011;5650;52.700;7.306;2023-02-02T12:51:51;5.90;;;2.05;;
11187;SDS011;5650;52.700;7.306;2023-02-02T12:54:44;8.65;;;2.40;;
11187;SDS011;5650;52.700;7.306;2023-02-02T12:57:46;7.63;;;2.25;;
11187;SDS011;5650;52.700;7.306;2023-02-02T13:00:24;6.82;;;2.20;;
11187;SDS011;5650;52.700;7.306;2023-02-02T13:03:10;9.80;;;2.55;;
11187;SDS011;5650;52.700;7.306;2023-02-02T13:05:56;13.25;;;2.33;;
11187;SDS011;5650;52.700;7.306;2023-02-02T13:08:40;10.98;;;2.42;;
11187;SDS011;5650;52.700;7.306;2023-02-02T13:11:17;8.60;;;3.15;;
11187;SDS011;5650;52.700;7.306;2023-02-02T13:13:59;7.22;;;2.33;;
11187;SDS011;5650;52.700;7.306;2023-02-02T13:16:35;8.73;;;2.20;;
11187;SDS011;5650;52.700;7.306;2023-02-02T13:19:06;10.75;;;5.20;;
11187;SDS011;5650;52.700;7.306;2023-02-02T13:21:36;12.80;;;3.20;;
11187;SDS011;5650;52.700;7.306;2023-02-02T13:24:11;6.75;;;2.20;;
11187;SDS011;5650;52.700;7.306;2023-02-02T13:26:49;33.80;;;24.38;;
11187;SDS011;5650;52.700;7.306;2023-02-02T13:29:21;8.93;;;5.30;;
11187;SDS011;5650;52.700;7.306;2023-02-02T13:32:06;10.32;;;4.43;;
11187;SDS011;5650;52.700;7.306;2023-02-02T13:34:43;6.72;;;2.33;;
11187;SDS011;5650;52.700;7.306;2023-02-02T13:37:19;6.60;;;2.47;;
11187;SDS011;5650;52.700;7.306;2023-02-02T13:40:05;8.07;;;2.28;;
11187;SDS011;5650;52.700;7.306;2023-02-02T13:42:42;6.07;;;2.50;;
11187;SDS011;5650;52.700;7.306;2023-02-02T13:45:21;8.73;;;3.53;;
11187;SDS011;5650;52.700;7.306;2023-02-02T13:48:13;9.68;;;3.85;;
11187;SDS011;5650;52.700;7.306;2023-02-02T13:50:46;9.35;;;3.92;;
11187;SDS011;5650;52.700;7.306;2023-02-02T13:57:03;10.95;;;3.13;;
11187;SDS011;5650;52.700;7.306;2023-02-02T13:59:46;9.40;;;3.67;;
11187;SDS011;5650;52.700;7.306;2023-02-02T14:02:21;70.75;;;58.83;;
11187;SDS011;5650;52.700;7.306;2023-02-02T14:04:56;8.98;;;4.70;;
11187;SDS011;5650;52.700;7.306;2023-02-02T14:07:35;11.50;;;7.38;;
11187;SDS011;5650;52.700;7.306;2023-02-02T14:10:06;11.05;;;7.32;;
11187;SDS011;5650;52.700;7.306;2023-02-02T14:12:47;8.40;;;5.70;;
11187;SDS011;5650;52.700;7.306;2023-02-02T14:15:15;12.05;;;4.13;;
11187;SDS011;5650;52.700;7.306;2023-02-02T14:17:50;5.70;;;3.63;;
11187;SDS011;5650;52.700;7.306;2023-02-02T14:20:40;7.10;;;3.63;;
11187;SDS011;5650;52.700;7.306;2023-02-02T14:26:16;8.23;;;3.80;;
11187;SDS011;5650;52.700;7.306;2023-02-02T14:28:47;11.57;;;4.10;;
11187;SDS011;5650;52.700;7.306;2023-02-02T14:31:16;9.55;;;4.75;;
11187;SDS011;5650;52.700;7.306;2023-02-02T14:37:05;11.95;;;4.10;;
11187;SDS011;5650;52.700;7.306;2023-02-02T14:39:48;8.27;;;4.38;;
11187;SDS011;5650;52.700;7.306;2023-02-02T14:42:25;9.23;;;5.85;;
11187;SDS011;5650;52.700;7.306;2023-02-02T14:45:22;13.35;;;4.80;;
11187;SDS011;5650;52.700;7.306;2023-02-02T14:47:53;8.77;;;5.32;;
11187;SDS011;5650;52.700;7.306;2023-02-02T14:50:30;11.38;;;4.50;;
11187;SDS011;5650;52.700;7.306;2023-02-02T14:53:13;12.52;;;5.50;;
11187;SDS011;5650;52.700;7.306;2023-02-02T14:55:57;10.10;;;6.50;;
11187;SDS011;5650;52.700;7.306;2023-02-02T14:58:29;12.60;;;6.30;;
11187;SDS011;5650;52.700;7.306;2023-02-02T15:01:10;12.73;;;5.43;;
11187;SDS011;5650;52.700;7.306;2023-02-02T15:03:48;13.65;;;5.45;;
11187;SDS011;5650;52.700;7.306;2023-02-02T15:06:28;15.90;;;6.70;;
11187;SDS011;5650;52.700;7.306;2023-02-02T15:14:47;16.25;;;10.10;;
11187;SDS011;5650;52.700;7.306;2023-02-02T15:17:19;12.32;;;6.30;;
11187;SDS011;5650;52.700;7.306;2023-02-02T15:19:54;12.13;;;5.10;;
11187;SDS011;5650;52.700;7.306;2023-02-02T15:22:40;16.73;;;6.15;;
11187;SDS011;5650;52.700;7.306;2023-02-02T15:25:16;12.98;;;7.78;;
11187;SDS011;5650;52.700;7.306;2023-02-02T15:27:56;13.93;;;8.65;;
11187;SDS011;5650;52.700;7.306;2023-02-02T15:30:29;10.02;;;7.05;;
11187;SDS011;5650;52.700;7.306;2023-02-02T15:33:03;12.00;;;6.82;;
11187;SDS011;5650;52.700;7.306;2023-02-02T15:35:46;13.73;;;5.78;;
11187;SDS011;5650;52.700;7.306;2023-02-02T15:38:16;13.07;;;5.72;;
11187;SDS011;5650;52.700;7.306;2023-02-02T15:40:48;13.75;;;6.72;;
11187;SDS011;5650;52.700;7.306;2023-02-02T15:43:16;12.32;;;6.45;;
11187;SDS011;5650;52.700;7.306;2023-02-02T15:45:47;17.85;;;9.43;;
11187;SDS011;5650;52.700;7.306;2023-02-02T15:48:19;17.55;;;9.23;;
11187;SDS011;5650;52.700;7.306;2023-02-02T15:50:48;19.45;;;13.48;;
11187;SDS011;5650;52.700;7.306;2023-02-02T15:53:22;13.27;;;7.22;;
11187;SDS011;5650;52.700;7.306;2023-02-02T15:55:51;11.80;;;8.50;;
11187;SDS011;5650;52.700;7.306;2023-02-02T15:58:24;9.25;;;6.10;;